x

New York Harbor Entrance - 15 Nm Se Of Breezy Point , Ny (44065) Wave Buoy

3:50pm - Sun 19th Feb 2017 All times are EST. -5 hours from GMT.

  • Sig Wave height 2.6ft
  • Swell Direction
  • Peak Period 7s
  • Average Period 6s
  • Wind
    7mph, 9mph gusts
  • Sea Temp 44°f
  • Air Temp 54°f
  • Sea Pressure 1009.4mb
  • New York Harbor Entrance - 15 Nm Se Of Breezy Point , Ny
  • New York Harbor Entrance - 15 Nm Se Of Breezy Point , Ny

More Historic Weather Station data

Upgrade to MSW Pro to gain access to the past 30 days of data for over 8000 Wavebouys and Weather Stations around the globe.

Join Pro

Comparision Forecast

View Surf forecast
   
Sun 02/19 3:50pm 2.5ft 7s 6s 7 9 mph 1009.4mb 44f 54f
2:50pm 2.5ft 6s 5s 9 11 mph 1008.8mb 43f 55f
1:50pm 2ft 6s 5s 7 9 mph 1008.9mb 42f 52f
12:50pm 2ft 5s 5s 11 13 mph 1009mb 43f 53f
11:50am 2.5ft 6s 5s 9
mph
1009.6mb 42f 51f
10:50am 2ft 5s 5s 7
mph
1009.6mb 42f 49f
9:50am 2ft 5s 4s 7
mph
1009.7mb 41f 47f
8:50am 2ft 5s 5s 9
mph
1009.2mb 41f 48f
7:50am 2ft 5s 5s 9
mph
1008.7mb 41f 47f
6:50am 2.5ft 5s 4s 7
mph
1007.5mb 41f 47f
5:50am 2.5ft 6s 4s 9
mph
1007mb 42f 47f
4:50am 2.5ft 6s 4s 7 9 mph 1005.7mb 42f 49f
3:50am 2.5ft 5s 4s 13 16 mph 1006mb 42f 47f
2:50am 2.5ft 5s 4s 13 16 mph 1005.6mb 42f 47f
1:50am 2.5ft 5s 4s 13 16 mph 1005.1mb 42f 47f
12:50am 2.5ft 5s 4s 11 13 mph 1005mb 42f 47f
Sat 02/18 11:50pm 2ft 4s 4s 9 11 mph 1004.6mb 42f 48f
10:50pm 2.5ft 5s 4s 9 11 mph 1004.9mb 42f 48f
9:50pm 2.5ft 5s 4s 11 13 mph 1004.9mb 42f 47f
8:50pm 2.5ft 5s 4s 13 16 mph 1004.9mb 42f 47f
7:50pm 2.5ft 5s 4s 13
mph
1004.7mb 42f 46f
6:50pm 2.5ft 4s 4s 11 13 mph 1005.3mb 42f 46f
5:50pm 2.5ft 4s 4s 16 18 mph 1004.8mb 42f 46f
4:50pm 2.5ft 4s 4s 16 18 mph 1004.7mb 42f 46f
3:50pm 2.5ft 4s 4s 13
mph
1005mb 42f 45f
2:50pm 2ft 3s 3s 16 18 mph 1005.3mb 42f 46f
1:50pm 2ft 3s 3s 13 16 mph 1005.9mb 42f 44f
12:50pm 2ft 3s 3s 16 18 mph 1006.5mb 42f 43f
11:50am 1.6ft 3s 3s 13 16 mph 1008.7mb 42f 43f
10:50am 1.6ft 3s 3s 16 18 mph 1010mb 42f 43f
9:50am 1.3ft 9s 3s 13 18 mph 1011.1mb 42f 42f
8:50am 1ft 10s 4s 11 13 mph 1011.1mb 42f 42f
7:50am 1.3ft 10s 3s 9 11 mph 1011.1mb 41f 41f
6:50am 1.3ft 12s 3s 11 13 mph 1011.5mb 41f 40f
5:50am 1ft 10s 4s 11 13 mph 1011.4mb 41f 39f
4:50am 1ft 10s 5s 9
mph
1011.8mb 41f 39f
3:50am 1ft 10s 5s 9 11 mph 1011.8mb 41f 40f
2:50am 1ft 10s 5s 4 7 mph 1012.3mb 41f 40f
1:50am 1ft 10s 4s 2 4 mph 1012.3mb 41f 40f
12:50am 1.3ft 2s 3s 4 7 mph 1012.4mb 42f 40f
Fri 02/17 11:50pm 1.3ft 11s 3s 9 11 mph 1012.3mb 42f 40f
10:50pm 1.3ft 11s 3s 13 16 mph 1012.3mb 42f 40f
9:50pm 1.3ft 10s 4s 13 16 mph 1012.4mb 42f 40f
8:50pm 1.3ft 11s 4s 11 13 mph 1011.9mb 42f 41f
7:50pm 1.6ft 3s 3s 9 13 mph 1011.8mb 42f 41f
6:50pm 1.6ft 3s 3s 11 13 mph 1011.2mb 42f 41f
5:50pm 2ft 3s 3s 13 16 mph 1010.2mb 42f 41f
4:50pm 2ft 3s 3s 16 18 mph 1009.4mb 42f 41f
3:50pm 2ft 3s 3s 16 18 mph 1009.3mb 42f 40f
2:50pm 2.5ft 3s 3s 18 22 mph 1009mb 42f 39f
1:50pm 2.5ft 4s 3s 18 22 mph 1009.4mb 42f 37f
12:50pm 2.5ft 4s 4s 18 20 mph 1009.9mb 42f 35f
11:50am 3ft 4s 4s 18 22 mph 1010.4mb 42f 34f
10:50am 3.5ft 4s 4s 22 27 mph 1010.9mb 41f 32f
9:50am 3.5ft 4s 4s 20 27 mph 1011.3mb 41f 31f
8:50am 3.5ft 4s 4s 25 31 mph 1010.8mb 41f 30f
7:50am 3.5ft 4s 4s 25 31 mph 1010.7mb 41f 30f
6:50am 4ft 4s 4s 27 34 mph 1010mb 41f 31f
5:50am 4ft 4s 4s 27 34 mph 1009.9mb 41f 31f
4:50am 3.5ft 4s 4s 27 34 mph 1009.5mb 41f 31f
3:50am 3.5ft 5s 4s 27 34 mph 1009.3mb 41f 31f
2:50am 4ft 4s 4s 27 34 mph 1009mb 41f 31f
1:50am 4ft 5s 4s 27 36 mph 1008.9mb 42f 31f
12:50am 4ft 5s 4s 25 31 mph 1008.7mb 42f 31f
Thu 02/16 11:50pm 4ft 5s 4s 31 38 mph 1007.8mb 42f 31f
10:50pm 4.5ft 5s 4s 25 31 mph 1007.9mb 42f 32f
9:50pm 4.5ft 5s 4s 29 34 mph 1006.8mb 42f 33f
8:50pm 4.5ft 5s 4s 34 40 mph 1006.2mb 42f 33f
7:50pm 4.5ft 5s 4s 29 36 mph 1006.1mb 42f 34f
6:50pm 4.5ft 5s 4s 34 38 mph 1004.7mb 42f 35f
5:50pm 4.5ft 5s 4s 31 40 mph 1003.6mb 42f 35f
4:50pm 4.5ft 5s 4s 29 36 mph 1002.9mb 42f 36f
3:50pm 4.5ft 4s 4s 29 34 mph 1002.1mb 42f 36f
2:50pm 4ft 4s 4s 29 36 mph 1001.1mb 42f 36f
1:50pm 4.5ft 5s 4s 27 31 mph 1001.1mb 42f 35f
12:50pm 4.5ft 4s 4s 25 31 mph 1001mb 42f 35f
11:50am 4.5ft 5s 4s 29 34 mph 1001mb 42f 34f
10:50am 4.5ft 5s 4s 29 36 mph 1000.9mb 42f 33f
9:50am 4.5ft 5s 4s 27 34 mph 1000.8mb 42f 33f
8:50am 4.5ft 5s 4s 29 34 mph 1000.6mb 42f 33f
7:50am 4ft 4s 4s 29 38 mph 1000mb 42f 34f
6:50am 4ft 4s 4s 29 36 mph 999.3mb 42f 34f
5:50am 4.5ft 5s 4s 29 38 mph 998.5mb 42f 34f
4:50am 4.5ft 5s 4s 31 36 mph 997.9mb 42f 34f
3:50am 4.5ft 5s 4s 29 36 mph 997.3mb 42f 35f
2:50am 4.5ft 4s 4s 31 38 mph 997.1mb 42f 36f
1:50am 4.5ft 4s 4s 31 36 mph 997mb 42f 37f
12:50am 3.5ft 13s 4s 25 31 mph 997.2mb 42f 38f
Wed 02/15 11:50pm 4ft 13s 4s 25 31 mph 997.1mb 42f 38f
10:50pm 4ft 13s 4s 29 34 mph 996.3mb 42f 38f